Terminal Aerodrome Forecast
Issued by NWS

Home | Current Version | Previous Version | Text Only | Print | Product List | Glossary On
Versions: 1 2 3 4 5 6 7 8 9 10 11 12 13
612
FTUS41 KPHI 251124
TAFPNE
TAF
KPNE 251124Z 2512/2612 VRB03KT P6SM FEW250
     FM251500 09006KT P6SM SKC
     FM252300 12007KT P6SM SKC
     FM260400 06004KT P6SM SCT007 BKN250
     FM260800 06004KT 6SM BR BKN007=

USA.gov is the U.S. government's official web portal to all federal, state and local government web resources and services.